Terminal Aerodrome Forecast
Issued by NWS

Home | Current Version | Previous Version | Text Only | Print | Product List | Glossary On
Versions: 1 2 3 4 5 6 7 8 9 10 11 12
000
FTUS44 KTSA 012340
TAFFYV
TAF
KFYV 012340Z 0200/0224 19011KT P6SM SCT040 BKN120
     FM020700 20011KT P6SM VCTS BKN060CB
     FM021300 22012KT P6SM SCT030 BKN060 BKN100
     FM021900 26012KT P6SM VCTS SCT050CB BKN120 PROB30 0220/0224 4SM
      TSRA BKN035CB=

USA.gov is the U.S. government's official web portal to all federal, state and local government web resources and services.